createdAt,value
2019-05-05T00:01:14.697Z,26.90
2019-05-05T00:04:01.029Z,15.03
2019-05-05T00:06:31.297Z,18.10
2019-05-05T00:09:01.030Z,20.75
2019-05-05T00:11:49.189Z,22.20
2019-05-05T00:14:26.533Z,21.27
2019-05-05T00:16:57.909Z,23.47
2019-05-05T00:21:59.713Z,21.30
2019-05-05T00:24:29.524Z,19.65
2019-05-05T00:26:59.182Z,27.52
2019-05-05T00:29:28.875Z,31.90
2019-05-05T00:31:58.838Z,25.55
2019-05-05T00:34:28.573Z,22.75
2019-05-05T00:36:58.381Z,24.10
2019-05-05T00:39:29.695Z,22.42
2019-05-05T00:41:59.686Z,23.25
2019-05-05T00:44:29.390Z,25.15
2019-05-05T00:47:17.295Z,27.82
2019-05-05T00:49:49.410Z,34.33
2019-05-05T00:52:27.860Z,22.22
2019-05-05T00:54:57.677Z,24.63
2019-05-05T00:57:27.445Z,27.05
2019-05-05T00:59:57.206Z,31.02
2019-05-05T01:02:37.638Z,25.68
2019-05-05T01:05:26.024Z,22.90
2019-05-05T01:07:55.870Z,28.92
2019-05-05T01:10:25.676Z,27.70
2019-05-05T01:12:55.466Z,21.10
2019-05-05T01:15:25.527Z,25.68
2019-05-05T01:17:56.467Z,22.27
2019-05-05T01:20:26.221Z,27.00
2019-05-05T01:22:55.827Z,24.57
2019-05-05T01:25:25.814Z,27.35
2019-05-05T01:27:55.471Z,20.77
2019-05-05T01:30:29.614Z,25.62
2019-05-05T01:33:05.374Z,25.80
2019-05-05T01:35:36.285Z,17.87
2019-05-05T01:38:24.803Z,31.23
2019-05-05T01:41:08.610Z,21.97
2019-05-05T01:43:38.310Z,22.50
2019-05-05T01:46:08.377Z,22.50
2019-05-05T01:48:38.040Z,34.30
2019-05-05T01:51:07.725Z,23.45
2019-05-05T01:53:40.503Z,31.20
2019-05-05T01:56:10.961Z,22.20
2019-05-05T01:58:44.135Z,19.97
2019-05-05T02:01:16.051Z,25.88
2019-05-05T02:03:47.529Z,24.85
2019-05-05T02:08:45.930Z,19.98
2019-05-05T02:11:15.743Z,25.00
2019-05-05T02:13:45.606Z,32.50
2019-05-05T02:16:15.377Z,31.30
2019-05-05T02:18:45.162Z,33.67
2019-05-05T02:21:16.431Z,21.85
2019-05-05T02:23:47.421Z,27.25
2019-05-05T02:29:05.977Z,25.57
2019-05-05T02:31:37.278Z,25.10
2019-05-05T02:34:07.071Z,34.58
2019-05-05T02:36:36.981Z,26.65
2019-05-05T02:39:09.632Z,25.35
2019-05-05T02:41:40.580Z,34.63
2019-05-05T02:44:10.761Z,29.02
2019-05-05T02:47:04.720Z,25.75
2019-05-05T02:49:36.538Z,34.27
2019-05-05T02:52:07.115Z,24.12
2019-05-05T02:54:37.353Z,21.77
2019-05-05T02:57:08.111Z,23.98
2019-05-05T02:59:43.504Z,31.65
2019-05-05T03:02:18.665Z,28.05
2019-05-05T03:04:48.702Z,29.40
2019-05-05T03:07:19.093Z,35.30
2019-05-05T03:09:51.238Z,34.30
2019-05-05T03:12:24.290Z,27.40
2019-05-05T03:14:56.696Z,23.18
2019-05-05T03:17:26.643Z,24.23
2019-05-05T03:19:57.060Z,33.50
2019-05-05T03:22:26.932Z,39.35
2019-05-05T03:24:57.227Z,27.65
2019-05-05T03:27:27.247Z,24.80
2019-05-05T03:29:57.160Z,34.15
2019-05-05T03:32:27.015Z,34.18
2019-05-05T03:34:56.980Z,32.20
2019-05-05T03:37:26.857Z,27.87
2019-05-05T03:39:58.945Z,34.70
2019-05-05T03:42:30.332Z,26.42
2019-05-05T03:47:33.670Z,20.25
2019-05-05T03:50:05.823Z,27.52
2019-05-05T03:52:35.706Z,23.70
2019-05-05T03:55:07.379Z,29.05
2019-05-05T03:57:38.668Z,28.45
2019-05-05T04:00:09.302Z,25.05
2019-05-05T04:02:42.084Z,21.50
2019-05-05T04:05:25.274Z,29.55
2019-05-05T04:07:54.606Z,30.27
2019-05-05T04:10:24.538Z,29.07
2019-05-05T04:12:55.740Z,28.30
2019-05-05T04:15:25.582Z,28.23
2019-05-05T04:17:59.919Z,21.37
2019-05-05T04:20:30.952Z,30.72
2019-05-05T04:23:00.817Z,30.77
2019-05-05T04:25:30.639Z,27.17
2019-05-05T04:28:00.445Z,28.35
2019-05-05T04:30:30.109Z,34.53
2019-05-05T04:32:59.767Z,26.17
2019-05-05T04:35:33.817Z,25.52
2019-05-05T04:38:04.762Z,31.60
2019-05-05T04:40:34.782Z,29.20
2019-05-05T04:43:04.464Z,27.20
2019-05-05T04:45:34.727Z,25.45
2019-05-05T04:48:06.623Z,28.23
2019-05-05T04:50:44.143Z,29.40
2019-05-05T04:53:18.661Z,27.20
2019-05-05T04:55:48.571Z,24.07
2019-05-05T04:58:18.425Z,32.70
2019-05-05T05:00:48.109Z,31.35
2019-05-05T05:03:34.964Z,29.23
2019-05-05T05:06:09.611Z,29.02
2019-05-05T05:08:39.400Z,32.78
2019-05-05T05:11:09.178Z,33.05
2019-05-05T05:13:39.194Z,28.70
2019-05-05T05:16:09.020Z,32.08
2019-05-05T05:18:38.731Z,28.85
2019-05-05T05:21:08.482Z,24.72
2019-05-05T05:23:38.417Z,32.05
2019-05-05T05:26:08.632Z,28.25
2019-05-05T05:28:38.307Z,22.30
2019-05-05T05:31:08.092Z,40.25
2019-05-05T05:33:37.936Z,29.95
2019-05-05T05:36:07.654Z,26.42
2019-05-05T05:38:37.400Z,27.98
2019-05-05T05:41:08.831Z,25.12
2019-05-05T05:43:46.438Z,31.73
2019-05-05T05:46:20.764Z,24.57
2019-05-05T05:49:10.036Z,28.12
2019-05-05T05:51:39.794Z,27.07
2019-05-05T05:54:09.542Z,24.57
2019-05-05T05:56:39.392Z,25.05
2019-05-05T05:59:09.111Z,32.90
2019-05-05T06:01:38.840Z,28.45
2019-05-05T06:04:10.766Z,25.23
2019-05-05T06:06:40.368Z,29.18
2019-05-05T06:09:10.176Z,35.20
2019-05-05T06:11:43.586Z,32.78
2019-05-05T06:14:14.538Z,24.95
2019-05-05T06:19:14.775Z,27.45
2019-05-05T06:21:44.409Z,27.00
2019-05-05T06:24:13.920Z,25.45
2019-05-05T06:26:44.538Z,32.40
2019-05-05T06:29:14.685Z,30.25
2019-05-05T06:31:45.472Z,25.00
2019-05-05T06:34:15.275Z,24.18
2019-05-05T06:36:45.304Z,28.92
2019-05-05T06:39:15.164Z,30.40
2019-05-05T06:41:49.286Z,25.45
2019-05-05T06:44:24.807Z,23.02
2019-05-05T06:47:13.370Z,22.32
2019-05-05T06:49:43.849Z,20.35
2019-05-05T06:52:14.314Z,25.43
2019-05-05T06:54:44.123Z,25.70
2019-05-05T06:57:13.967Z,27.62
2019-05-05T06:59:45.059Z,31.87
2019-05-05T07:02:16.005Z,26.62
2019-05-05T07:04:45.829Z,21.20
2019-05-05T07:07:15.508Z,27.13
2019-05-05T07:09:45.390Z,30.27
2019-05-05T07:12:17.452Z,31.15
2019-05-05T07:14:47.176Z,28.47
2019-05-05T07:17:16.869Z,23.45
2019-05-05T07:19:49.631Z,27.13
2019-05-05T07:22:20.484Z,30.88
2019-05-05T07:24:50.047Z,26.82
2019-05-05T07:27:19.946Z,28.23
2019-05-05T07:29:50.053Z,28.27
2019-05-05T07:32:21.017Z,26.00
2019-05-05T07:34:54.493Z,27.52
2019-05-05T07:37:23.944Z,32.05
2019-05-05T07:39:54.413Z,29.27
2019-05-05T07:42:24.468Z,25.03
2019-05-05T07:44:54.665Z,21.82
2019-05-05T07:47:25.726Z,23.62
2019-05-05T07:49:55.884Z,19.98
2019-05-05T07:52:26.071Z,24.85
2019-05-05T07:54:55.939Z,25.82
2019-05-05T07:57:25.831Z,27.52
2019-05-05T07:59:56.528Z,22.42
2019-05-05T08:02:26.554Z,34.90
2019-05-05T08:04:56.139Z,21.52
2019-05-05T08:07:26.085Z,29.10
2019-05-05T08:09:55.999Z,28.35
2019-05-05T08:12:25.689Z,25.23
2019-05-05T08:14:55.406Z,26.33
2019-05-05T08:17:27.566Z,21.33
2019-05-05T08:19:58.906Z,28.57
2019-05-05T08:25:08.262Z,20.60
2019-05-05T08:27:44.571Z,20.05
2019-05-05T08:30:33.522Z,23.35
2019-05-05T08:33:04.591Z,20.80
2019-05-05T08:35:34.759Z,23.12
2019-05-05T08:38:04.821Z,24.18
2019-05-05T08:40:34.819Z,15.95
2019-05-05T08:43:04.836Z,22.95
2019-05-05T08:45:35.065Z,16.37
2019-05-05T08:50:36.079Z,16.87
2019-05-05T08:53:26.597Z,26.23
2019-05-05T08:55:56.421Z,18.67
2019-05-05T08:58:26.170Z,24.52
2019-05-05T09:00:57.884Z,18.80
2019-05-05T09:03:27.717Z,21.48
2019-05-05T09:05:57.350Z,13.18
2019-05-05T09:08:27.173Z,18.52
2019-05-05T09:10:56.973Z,16.80
2019-05-05T09:13:26.663Z,14.68
2019-05-05T09:15:56.370Z,22.05
2019-05-05T09:18:27.202Z,17.20
2019-05-05T09:20:56.801Z,12.80
2019-05-05T09:23:26.587Z,13.40
2019-05-05T09:25:58.165Z,19.80
2019-05-05T09:28:48.347Z,14.25
2019-05-05T09:31:19.820Z,15.35
2019-05-05T09:33:50.816Z,17.85
2019-05-05T09:36:20.747Z,13.05
2019-05-05T09:38:50.774Z,14.68
2019-05-05T09:41:21.007Z,17.12
2019-05-05T09:43:51.279Z,17.98
2019-05-05T09:46:23.465Z,12.35
2019-05-05T09:48:55.041Z,11.85
2019-05-05T09:51:24.963Z,28.70
2019-05-05T09:54:10.698Z,15.20
2019-05-05T09:56:29.475Z,14.23
2019-05-05T09:59:00.402Z,14.45
2019-05-05T10:01:36.007Z,16.00
2019-05-05T10:04:13.880Z,13.10
2019-05-05T10:06:47.735Z,15.63
2019-05-05T10:09:16.176Z,16.15
2019-05-05T10:11:45.880Z,12.95
2019-05-05T10:14:15.807Z,11.73
2019-05-05T10:16:45.617Z,13.18
2019-05-05T10:19:15.360Z,15.18
2019-05-05T10:21:45.062Z,10.28
2019-05-05T10:24:30.121Z,7.97
2019-05-05T10:26:54.341Z,14.38
2019-05-05T10:29:25.044Z,12.10
2019-05-05T10:31:54.910Z,9.83
2019-05-05T10:34:25.573Z,14.83
2019-05-05T10:36:55.653Z,18.07
2019-05-05T10:39:34.311Z,11.18
2019-05-05T10:42:04.524Z,17.05
2019-05-05T10:44:34.887Z,17.60
2019-05-05T10:47:04.824Z,16.30
2019-05-05T10:49:37.703Z,13.58
2019-05-05T10:52:11.632Z,18.87
2019-05-05T10:54:44.803Z,13.98
2019-05-05T10:57:18.325Z,10.82
2019-05-05T10:59:53.456Z,13.93
2019-05-05T11:02:24.195Z,11.25
2019-05-05T11:04:54.702Z,17.42
2019-05-05T11:07:25.483Z,12.85
2019-05-05T11:10:03.780Z,10.38
2019-05-05T11:12:35.879Z,9.35
2019-05-05T11:15:09.745Z,16.12
2019-05-05T11:17:43.912Z,15.83
2019-05-05T11:20:16.386Z,13.72
2019-05-05T11:22:48.028Z,13.88
2019-05-05T11:25:19.672Z,9.90
2019-05-05T11:27:51.748Z,13.32
2019-05-05T11:30:43.309Z,10.48
2019-05-05T11:33:31.504Z,10.50
2019-05-05T11:36:06.241Z,12.58
2019-05-05T11:38:36.679Z,9.25
2019-05-05T11:41:06.416Z,8.77
2019-05-05T11:43:37.744Z,9.43
2019-05-05T11:48:36.702Z,11.50
2019-05-05T11:51:06.454Z,11.97
2019-05-05T11:53:36.287Z,13.15
2019-05-05T11:56:06.171Z,9.25
2019-05-05T11:58:35.819Z,15.05
2019-05-05T12:01:05.694Z,9.53
2019-05-05T12:03:37.774Z,7.65
2019-05-05T12:08:35.448Z,11.95
2019-05-05T12:11:06.238Z,11.53
2019-05-05T12:13:37.102Z,11.55
2019-05-05T12:16:07.868Z,11.53
2019-05-05T12:18:37.578Z,9.40
2019-05-05T12:21:07.370Z,9.13
2019-05-05T12:23:37.183Z,7.40
2019-05-05T12:26:13.637Z,12.23
2019-05-05T12:28:54.500Z,10.35
2019-05-05T12:31:28.201Z,8.55
2019-05-05T12:33:58.057Z,6.75
2019-05-05T12:36:27.996Z,10.23
2019-05-05T12:38:57.736Z,7.03
2019-05-05T12:41:27.464Z,7.28
2019-05-05T12:43:57.152Z,11.93
2019-05-05T12:46:44.786Z,10.53
2019-05-05T12:49:15.646Z,11.30
2019-05-05T12:51:45.453Z,10.63
2019-05-05T12:54:15.320Z,6.75
2019-05-05T12:56:45.052Z,13.50
2019-05-05T12:59:16.370Z,8.50
2019-05-05T13:04:14.909Z,6.33
2019-05-05T13:06:45.187Z,8.58
2019-05-05T13:09:16.094Z,6.70
2019-05-05T13:11:45.875Z,14.60
2019-05-05T13:14:15.711Z,10.82
2019-05-05T13:16:52.512Z,10.03
2019-05-05T13:19:30.692Z,9.18
2019-05-05T13:22:11.687Z,7.87
2019-05-05T13:27:34.063Z,7.55
2019-05-05T13:30:09.051Z,8.85
2019-05-05T13:32:39.784Z,9.85
2019-05-05T13:35:10.896Z,14.43
2019-05-05T13:37:40.675Z,9.45
2019-05-05T13:40:10.586Z,10.78
2019-05-05T13:42:40.562Z,10.90
2019-05-05T13:45:14.499Z,10.23
2019-05-05T13:47:45.560Z,10.65
2019-05-05T13:50:17.092Z,9.48
2019-05-05T13:52:48.178Z,11.18
2019-05-05T13:55:20.016Z,10.05
2019-05-05T13:57:50.400Z,11.88
2019-05-05T14:00:20.928Z,11.15
2019-05-05T14:02:50.862Z,10.85
2019-05-05T14:05:20.896Z,8.23
2019-05-05T14:07:50.810Z,9.43
2019-05-05T14:10:21.065Z,10.05
2019-05-05T14:12:50.908Z,7.42
2019-05-05T14:15:20.646Z,10.80
2019-05-05T14:17:50.534Z,12.40
2019-05-05T14:20:20.298Z,9.88
2019-05-05T14:22:51.325Z,9.58
2019-05-05T14:25:24.263Z,11.00
2019-05-05T14:27:54.327Z,8.75
2019-05-05T14:30:34.117Z,9.35
2019-05-05T14:33:04.580Z,9.55
2019-05-05T14:35:39.639Z,15.78
2019-05-05T14:38:11.309Z,12.50
2019-05-05T14:40:41.209Z,15.03
2019-05-05T14:43:11.065Z,10.85
2019-05-05T14:45:40.942Z,11.08
2019-05-05T14:48:10.835Z,9.50
2019-05-05T14:50:40.627Z,13.03
2019-05-05T14:53:11.892Z,12.65
2019-05-05T14:58:10.481Z,11.10
2019-05-05T15:00:40.307Z,8.55
2019-05-05T15:03:11.510Z,8.83
2019-05-05T15:05:45.860Z,8.15
2019-05-05T15:08:20.097Z,10.88
2019-05-05T15:10:57.291Z,11.12
2019-05-05T15:13:28.471Z,8.55
2019-05-05T15:18:29.292Z,7.35
2019-05-05T15:20:59.029Z,10.05
2019-05-05T15:23:29.657Z,11.22
2019-05-05T15:25:59.436Z,9.45
2019-05-05T15:28:29.160Z,9.05
2019-05-05T15:30:58.866Z,9.45
2019-05-05T15:35:58.963Z,9.00
2019-05-05T15:38:28.572Z,10.15
2019-05-05T15:40:58.392Z,11.88
2019-05-05T15:43:28.159Z,10.63
2019-05-05T15:45:57.952Z,12.70
2019-05-05T15:48:27.765Z,12.58
2019-05-05T15:50:57.508Z,13.25
2019-05-05T15:53:27.268Z,11.93
2019-05-05T15:55:56.930Z,9.20
2019-05-05T15:58:26.507Z,13.22
2019-05-05T16:00:56.151Z,9.35
2019-05-05T16:03:25.903Z,11.38
2019-05-05T16:05:55.639Z,7.70
2019-05-05T16:08:25.662Z,9.13
2019-05-05T16:10:55.854Z,12.03
2019-05-05T16:13:25.756Z,10.32
2019-05-05T16:15:57.226Z,17.30
2019-05-05T16:18:34.856Z,9.63
2019-05-05T16:21:26.306Z,12.03
2019-05-05T16:24:03.635Z,10.03
2019-05-05T16:26:34.461Z,11.33
2019-05-05T16:29:04.551Z,10.18
2019-05-05T16:31:39.848Z,10.00
2019-05-05T16:34:09.532Z,9.80
2019-05-05T16:36:39.384Z,14.65
2019-05-05T16:39:09.336Z,12.15
2019-05-05T16:41:39.308Z,13.22
2019-05-05T16:44:09.246Z,16.87
2019-05-05T16:46:39.157Z,15.72
2019-05-05T16:49:08.879Z,16.15
2019-05-05T16:51:54.406Z,12.15
2019-05-05T16:54:29.118Z,9.88
2019-05-05T16:56:59.103Z,9.20
2019-05-05T16:59:29.665Z,9.33
2019-05-05T17:01:59.811Z,15.45
2019-05-05T17:04:29.730Z,11.20
2019-05-05T17:06:59.512Z,9.18
2019-05-05T17:09:29.360Z,10.93
2019-05-05T17:12:10.734Z,7.55
2019-05-05T17:17:18.726Z,9.43
2019-05-05T17:22:23.092Z,8.53
2019-05-05T17:24:53.560Z,11.93
2019-05-05T17:27:23.633Z,12.78
2019-05-05T17:29:53.684Z,10.03
2019-05-05T17:32:24.907Z,11.65
2019-05-05T17:34:54.706Z,11.10
2019-05-05T17:37:24.542Z,12.58
2019-05-05T17:39:55.997Z,11.25
2019-05-05T17:42:27.643Z,10.32
2019-05-05T17:45:03.705Z,11.35
2019-05-05T17:47:53.902Z,10.90
2019-05-05T17:50:44.695Z,12.93
2019-05-05T17:53:16.009Z,10.43
2019-05-05T17:55:45.993Z,11.57
2019-05-05T17:58:15.749Z,11.95
2019-05-05T18:00:51.051Z,12.63
2019-05-05T18:03:22.410Z,12.13
2019-05-05T18:08:36.606Z,12.20
2019-05-05T18:11:10.767Z,12.80
2019-05-05T18:13:54.358Z,9.70
2019-05-05T18:16:27.105Z,10.13
2019-05-05T18:18:56.756Z,10.25
2019-05-05T18:21:30.360Z,12.13
2019-05-05T18:24:00.209Z,14.35
2019-05-05T18:26:30.146Z,13.78
2019-05-05T18:29:00.200Z,11.83
2019-05-05T18:31:30.255Z,13.43
2019-05-05T18:33:59.959Z,16.35
2019-05-05T18:36:29.742Z,14.15
2019-05-05T18:38:59.574Z,11.28
2019-05-05T18:41:34.428Z,13.22
2019-05-05T18:44:19.858Z,11.48
2019-05-05T18:46:51.187Z,18.70
2019-05-05T18:51:49.749Z,13.28
2019-05-05T18:54:19.492Z,16.50
2019-05-05T18:56:49.843Z,20.20
2019-05-05T18:59:19.614Z,20.40
2019-05-05T19:01:54.095Z,20.50
2019-05-05T19:04:26.854Z,21.17
2019-05-05T19:06:58.250Z,22.87
2019-05-05T19:11:56.909Z,32.30
2019-05-05T19:14:30.105Z,41.30
2019-05-05T19:16:59.673Z,48.60
2019-05-05T19:19:29.330Z,50.38
2019-05-05T19:22:00.702Z,36.23
2019-05-05T19:24:35.180Z,23.52
2019-05-05T19:29:33.409Z,17.85
2019-05-05T19:32:04.847Z,18.12
2019-05-05T19:39:35.424Z,19.60
2019-05-05T19:42:05.488Z,16.62
2019-05-05T19:44:36.185Z,13.93
2019-05-05T19:47:13.915Z,18.77
2019-05-05T19:49:45.176Z,20.70
2019-05-05T19:52:14.821Z,18.98
2019-05-05T19:54:47.438Z,19.82
2019-05-05T19:59:44.877Z,17.45
2019-05-05T20:02:14.984Z,14.78
2019-05-05T20:04:44.690Z,22.05
2019-05-05T20:07:17.193Z,16.50
2019-05-05T20:09:46.948Z,18.15
2019-05-05T20:12:16.685Z,21.20
2019-05-05T20:14:46.544Z,21.17
2019-05-05T20:17:19.110Z,15.53
2019-05-05T20:19:48.797Z,18.27
2019-05-05T20:22:19.621Z,21.02
2019-05-05T20:24:49.173Z,22.73
2019-05-05T20:27:18.887Z,17.48
2019-05-05T20:29:48.631Z,20.35
2019-05-05T20:32:19.976Z,19.07
2019-05-05T20:37:43.998Z,22.90
2019-05-05T20:40:16.352Z,20.40
2019-05-05T20:42:47.919Z,19.42
2019-05-05T20:45:19.539Z,24.20
2019-05-05T20:47:49.387Z,26.17
2019-05-05T20:50:19.569Z,23.47
2019-05-05T20:52:49.815Z,20.88
2019-05-05T20:55:22.379Z,21.45
2019-05-05T20:57:53.683Z,18.55
2019-05-05T21:00:24.031Z,19.95
2019-05-05T21:02:55.537Z,19.55
2019-05-05T21:05:26.430Z,19.10
2019-05-05T21:07:56.390Z,16.52
2019-05-05T21:10:26.851Z,17.55
2019-05-05T21:12:56.663Z,17.77
2019-05-05T21:15:29.461Z,17.42
2019-05-05T21:17:59.342Z,19.25
2019-05-05T21:20:29.167Z,21.68
2019-05-05T21:23:14.420Z,18.70
2019-05-05T21:25:45.818Z,21.20
2019-05-05T21:28:15.520Z,20.55
2019-05-05T21:30:45.267Z,15.15
2019-05-05T21:33:14.972Z,19.07
2019-05-05T21:35:44.778Z,18.67
2019-05-05T21:38:14.430Z,20.55
2019-05-05T21:40:44.205Z,18.82
2019-05-05T21:43:15.390Z,19.55
2019-05-05T21:45:45.226Z,18.87
2019-05-05T21:48:14.903Z,17.85
2019-05-05T21:50:47.450Z,15.32
2019-05-05T21:53:24.909Z,16.90
2019-05-05T21:55:56.092Z,15.05
2019-05-05T21:58:30.161Z,24.32
2019-05-05T22:01:04.199Z,17.12
2019-05-05T22:03:37.857Z,18.92
2019-05-05T22:06:07.503Z,18.30
2019-05-05T22:08:56.722Z,14.25
2019-05-05T22:11:29.413Z,17.57
2019-05-05T22:13:59.223Z,20.57
2019-05-05T22:16:29.066Z,14.95
2019-05-05T22:18:58.747Z,20.88
2019-05-05T22:21:30.119Z,16.17
2019-05-05T22:26:45.984Z,19.95
2019-05-05T22:29:17.007Z,18.07
2019-05-05T22:34:16.197Z,15.00
2019-05-05T22:36:45.915Z,17.27
2019-05-05T22:39:17.113Z,18.45
2019-05-05T22:44:15.941Z,20.45
2019-05-05T22:46:45.708Z,15.60
2019-05-05T22:49:15.554Z,18.45
2019-05-05T22:51:45.329Z,15.75
2019-05-05T22:54:16.423Z,16.57
2019-05-05T22:56:46.165Z,18.82
2019-05-05T22:59:16.903Z,18.05
2019-05-05T23:01:46.683Z,19.05
2019-05-05T23:04:19.261Z,16.60
2019-05-05T23:06:54.225Z,15.28
2019-05-05T23:09:24.285Z,17.37
2019-05-05T23:11:54.574Z,17.45
2019-05-05T23:17:21.520Z,15.25
2019-05-05T23:19:53.881Z,18.32
2019-05-05T23:22:27.540Z,17.27
2019-05-05T23:24:58.878Z,18.67
2019-05-05T23:30:16.313Z,16.00
2019-05-05T23:32:47.670Z,20.40
2019-05-05T23:37:47.145Z,16.73
2019-05-05T23:40:24.561Z,20.45
2019-05-05T23:42:54.389Z,18.17
2019-05-05T23:45:25.690Z,17.45
2019-05-05T23:47:55.908Z,17.60
2019-05-05T23:50:25.589Z,22.37
2019-05-05T23:52:55.162Z,16.95
2019-05-05T23:55:25.274Z,20.50
2019-05-05T23:57:55.073Z,20.65
